Time;durP1;ratioP1;P1;durP2;ratioP2;P2;SDS_P1;SDS_P2;PMS_P1;PMS_P2;Temp;Humidity;BMP_temperature;BMP_pressure;BME280_temperature;BME280_humidity;BME280_pressure;Samples;Min_cycle;Max_cycle;Signal;HPM_P1;HPM_P2
2021/05/01 00:01:09;;;;;;;36.43;32.63;;;;;;;;;;5022156;28;20443;-73
2021/05/01 00:03:36;;;;;;;37.50;33.60;;;;;;;;;;5017455;28;22863;-74
2021/05/01 00:06:02;;;;;;;35.10;31.70;;;;;;;;;;5020161;28;20525;-75
2021/05/01 00:08:28;;;;;;;36.57;32.87;;;;;;;;;;5006848;28;20446;-74
2021/05/01 00:11:00;;;;;;;36.53;32.73;;;;;;;;;;5023970;28;21104;-73
2021/05/01 00:13:26;;;;;;;36.70;32.73;;;;;;;;;;5023815;28;20460;-73
2021/05/01 00:15:53;;;;;;;37.17;33.30;;;;;;;;;;5005350;28;20435;-73
2021/05/01 00:18:19;;;;;;;37.20;33.40;;;;;;;;;;5023875;28;20524;-73
2021/05/01 00:20:45;;;;;;;40.03;35.40;;;;;;;;;;5001596;28;20466;-73
2021/05/01 00:23:11;;;;;;;36.37;32.43;;;;;;;;;;5004251;28;20932;-74
2021/05/01 00:25:37;;;;;;;37.83;33.80;;;;;;;;;;4999697;28;20463;-73
2021/05/01 00:28:03;;;;;;;37.73;33.73;;;;;;;;;;5012821;28;20436;-73
2021/05/01 00:30:29;;;;;;;40.00;35.60;;;;;;;;;;5021668;28;20435;-73
2021/05/01 00:32:56;;;;;;;41.47;35.53;;;;;;;;;;5008890;28;20432;-74
2021/05/01 00:35:22;;;;;;;37.90;34.00;;;;;;;;;;4997584;28;20436;-74
2021/05/01 00:37:48;;;;;;;40.53;36.40;;;;;;;;;;5000564;28;20514;-74
2021/05/01 00:40:14;;;;;;;38.10;34.10;;;;;;;;;;5019230;28;20460;-74
2021/05/01 00:42:41;;;;;;;38.97;34.67;;;;;;;;;;5004844;28;20427;-75
2021/05/01 00:45:07;;;;;;;39.47;34.20;;;;;;;;;;5003405;28;20478;-73
2021/05/01 00:47:33;;;;;;;40.17;36.03;;;;;;;;;;5007213;28;20455;-73
2021/05/01 00:49:59;;;;;;;41.77;36.37;;;;;;;;;;5018662;28;20929;-73
2021/05/01 00:52:26;;;;;;;41.50;36.47;;;;;;;;;;5005634;28;20436;-73
2021/05/01 00:54:52;;;;;;;40.00;35.70;;;;;;;;;;5007911;28;20445;-73
2021/05/01 00:57:18;;;;;;;42.57;38.17;;;;;;;;;;5014165;28;20450;-73
2021/05/01 00:59:44;;;;;;;40.40;35.90;;;;;;;;;;5019532;28;20533;-74
2021/05/01 01:02:12;;;;;;;43.67;36.50;;;;;;;;;;5015367;28;21121;-74
2021/05/01 01:04:38;;;;;;;46.63;38.30;;;;;;;;;;5021494;28;20470;-73
2021/05/01 01:07:04;;;;;;;46.27;40.17;;;;;;;;;;5006858;28;20458;-73
2021/05/01 01:09:30;;;;;;;41.20;36.77;;;;;;;;;;5017534;28;20477;-73
2021/05/01 01:11:56;;;;;;;46.73;39.17;;;;;;;;;;5016590;28;20443;-74
2021/05/01 01:14:22;;;;;;;43.23;38.67;;;;;;;;;;5007032;28;20436;-74
2021/05/01 01:16:48;;;;;;;42.67;38.17;;;;;;;;;;5007496;28;25897;-74
2021/05/01 01:19:15;;;;;;;45.37;39.10;;;;;;;;;;5015027;28;20953;-72
2021/05/01 01:21:42;;;;;;;44.30;39.77;;;;;;;;;;5018890;28;20466;-73
2021/05/01 01:24:08;;;;;;;46.13;41.30;;;;;;;;;;5018836;28;20466;-73
2021/05/01 01:26:38;;;;;;;47.20;39.23;;;;;;;;;;5023382;28;20964;-75
2021/05/01 01:29:04;;;;;;;46.53;39.73;;;;;;;;;;4997479;28;20436;-72
2021/05/01 01:31:30;;;;;;;42.57;38.17;;;;;;;;;;5020967;28;20835;-75
2021/05/01 01:33:56;;;;;;;44.60;40.10;;;;;;;;;;5016011;28;21027;-74
2021/05/01 01:36:22;;;;;;;47.17;42.37;;;;;;;;;;5018962;28;20474;-73
2021/05/01 01:38:48;;;;;;;44.83;38.80;;;;;;;;;;5003156;28;20428;-73
2021/05/01 01:41:14;;;;;;;42.10;37.60;;;;;;;;;;5027070;28;20959;-75
2021/05/01 01:43:40;;;;;;;41.53;37.03;;;;;;;;;;5025694;28;20534;-73
2021/05/01 01:46:06;;;;;;;45.57;40.50;;;;;;;;;;5016556;28;20538;-72
2021/05/01 01:48:32;;;;;;;43.77;39.00;;;;;;;;;;5013301;28;20526;-73
2021/05/01 01:50:58;;;;;;;40.20;36.10;;;;;;;;;;5012820;28;20444;-72
2021/05/01 01:53:24;;;;;;;41.03;36.80;;;;;;;;;;5010865;28;20461;-73
2021/05/01 01:55:51;;;;;;;43.97;39.20;;;;;;;;;;5007610;28;20431;-73
2021/05/01 01:58:18;;;;;;;42.57;37.97;;;;;;;;;;5017669;28;20443;-72
2021/05/01 02:00:44;;;;;;;41.00;36.80;;;;;;;;;;4999909;28;20950;-73
2021/05/01 02:03:10;;;;;;;42.87;38.27;;;;;;;;;;5013503;28;20435;-72
2021/05/01 02:05:36;;;;;;;45.10;40.17;;;;;;;;;;5014315;28;20501;-72
2021/05/01 02:08:02;;;;;;;44.63;38.20;;;;;;;;;;5015162;28;20954;-73
2021/05/01 02:10:29;;;;;;;43.97;39.17;;;;;;;;;;5022126;28;20435;-73
2021/05/01 02:12:55;;;;;;;45.23;39.67;;;;;;;;;;5017792;28;20439;-72
2021/05/01 02:15:22;;;;;;;46.13;40.40;;;;;;;;;;5003884;28;20469;-73
2021/05/01 02:17:49;;;;;;;51.63;42.10;;;;;;;;;;5021289;28;20550;-73
2021/05/01 02:20:17;;;;;;;46.00;41.23;;;;;;;;;;4999521;28;20427;-73
2021/05/01 02:22:43;;;;;;;48.00;42.87;;;;;;;;;;5017328;28;20430;-72
2021/05/01 02:25:10;;;;;;;44.17;39.53;;;;;;;;;;5024601;28;20473;-73
2021/05/01 02:27:36;;;;;;;46.00;41.07;;;;;;;;;;5028064;28;20534;-72
2021/05/01 02:30:04;;;;;;;46.50;39.90;;;;;;;;;;5007478;28;20439;-73
2021/05/01 02:32:30;;;;;;;45.73;41.07;;;;;;;;;;5017006;28;20439;-72
2021/05/01 02:34:56;;;;;;;49.10;43.73;;;;;;;;;;5002040;28;20486;-73
2021/05/01 02:37:22;;;;;;;47.50;42.33;;;;;;;;;;5014190;28;20505;-72
2021/05/01 02:39:51;;;;;;;49.90;42.07;;;;;;;;;;5021982;28;20447;-73
2021/05/01 02:42:17;;;;;;;47.53;41.30;;;;;;;;;;5020704;28;20438;-72
2021/05/01 02:44:43;;;;;;;47.93;41.00;;;;;;;;;;5012724;28;20466;-72
2021/05/01 02:47:10;;;;;;;48.77;41.47;;;;;;;;;;5018236;28;20483;-73
2021/05/01 02:49:36;;;;;;;47.63;40.63;;;;;;;;;;5019141;28;21129;-73
2021/05/01 02:52:02;;;;;;;47.57;42.57;;;;;;;;;;5017204;28;20443;-73
2021/05/01 02:54:28;;;;;;;50.17;44.87;;;;;;;;;;5001818;28;20427;-73
2021/05/01 02:56:54;;;;;;;53.30;43.63;;;;;;;;;;5015218;28;20471;-73
2021/05/01 02:59:20;;;;;;;51.50;43.90;;;;;;;;;;5022064;28;20956;-73
2021/05/01 03:01:45;;;;;;;52.27;46.30;;;;;;;;;;4995518;28;20432;-73
2021/05/01 03:04:11;;;;;;;50.87;44.73;;;;;;;;;;5008879;28;20509;-73
2021/05/01 03:06:38;;;;;;;53.10;44.67;;;;;;;;;;5012138;28;20552;-72
2021/05/01 03:09:04;;;;;;;52.23;43.90;;;;;;;;;;5019721;28;20467;-73
2021/05/01 03:11:30;;;;;;;50.60;45.10;;;;;;;;;;5027220;28;20431;-74
2021/05/01 03:13:56;;;;;;;48.13;41.77;;;;;;;;;;5024236;28;20874;-72
2021/05/01 03:16:22;;;;;;;50.43;42.90;;;;;;;;;;5022484;28;20530;-73
2021/05/01 03:18:48;;;;;;;52.13;46.70;;;;;;;;;;5021300;28;20445;-73
2021/05/01 03:21:14;;;;;;;50.87;45.57;;;;;;;;;;5014211;28;20451;-72
2021/05/01 03:23:40;;;;;;;50.67;45.17;;;;;;;;;;5016824;28;20470;-72
2021/05/01 03:26:06;;;;;;;53.63;47.20;;;;;;;;;;5005869;28;20497;-72
2021/05/01 03:28:32;;;;;;;55.33;46.73;;;;;;;;;;4997226;28;20945;-74
2021/05/01 03:30:58;;;;;;;59.43;48.30;;;;;;;;;;5023026;28;20467;-74
2021/05/01 03:33:26;;;;;;;58.37;49.30;;;;;;;;;;4993329;28;20449;-74
2021/05/01 03:35:54;;;;;;;60.27;50.20;;;;;;;;;;5014761;28;20447;-73
2021/05/01 03:38:20;;;;;;;56.60;50.40;;;;;;;;;;5016650;28;21059;-74
2021/05/01 03:40:46;;;;;;;55.60;47.53;;;;;;;;;;4994401;28;20471;-74
2021/05/01 03:43:12;;;;;;;50.70;44.03;;;;;;;;;;5020390;28;20945;-74
2021/05/01 03:45:38;;;;;;;49.13;43.83;;;;;;;;;;5005337;28;20495;-74
2021/05/01 03:48:05;;;;;;;53.40;43.00;;;;;;;;;;5019770;28;20486;-74
2021/05/01 03:50:31;;;;;;;53.20;47.50;;;;;;;;;;5021930;28;20450;-74
2021/05/01 03:52:57;;;;;;;56.53;47.43;;;;;;;;;;5022286;28;20519;-73
2021/05/01 03:55:23;;;;;;;50.60;45.03;;;;;;;;;;5017020;28;20473;-73
2021/05/01 03:57:49;;;;;;;55.90;46.90;;;;;;;;;;4999234;28;20483;-72
2021/05/01 04:00:15;;;;;;;54.00;46.37;;;;;;;;;;5018114;28;20467;-73
2021/05/01 04:02:41;;;;;;;47.03;41.90;;;;;;;;;;5021598;28;20957;-74
2021/05/01 04:05:08;;;;;;;50.97;43.70;;;;;;;;;;5010022;28;20497;-74
2021/05/01 04:07:34;;;;;;;50.93;45.37;;;;;;;;;;5005992;28;20984;-72
2021/05/01 04:10:00;;;;;;;52.73;46.97;;;;;;;;;;5015488;28;21258;-72
2021/05/01 04:12:26;;;;;;;54.20;47.13;;;;;;;;;;5005926;28;20439;-73
2021/05/01 04:14:52;;;;;;;53.73;46.20;;;;;;;;;;5011098;28;20450;-73
2021/05/01 04:17:18;;;;;;;53.40;44.70;;;;;;;;;;5003475;28;20463;-74
2021/05/01 04:19:44;;;;;;;49.70;44.27;;;;;;;;;;5027018;28;20474;-73
2021/05/01 04:22:10;;;;;;;47.80;42.50;;;;;;;;;;5002687;28;20873;-74
2021/05/01 04:24:36;;;;;;;45.77;40.67;;;;;;;;;;5021614;28;20467;-72
2021/05/01 04:27:02;;;;;;;47.37;42.17;;;;;;;;;;5022425;28;20473;-72
2021/05/01 04:29:29;;;;;;;45.33;40.40;;;;;;;;;;5019197;28;20481;-74
2021/05/01 04:31:55;;;;;;;45.70;38.40;;;;;;;;;;5026626;28;20438;-73
2021/05/01 04:34:23;;;;;;;42.70;38.03;;;;;;;;;;5019822;28;20443;-74
2021/05/01 04:36:49;;;;;;;41.37;36.80;;;;;;;;;;5027757;28;20479;-73
2021/05/01 04:39:15;;;;;;;44.97;40.10;;;;;;;;;;5006440;28;20447;-73
2021/05/01 04:41:42;;;;;;;44.63;39.47;;;;;;;;;;5008573;28;20445;-73
2021/05/01 04:44:08;;;;;;;52.50;44.03;;;;;;;;;;5020428;28;21030;-73
2021/05/01 04:46:34;;;;;;;51.90;45.80;;;;;;;;;;5016680;28;20613;-73
2021/05/01 04:49:00;;;;;;;51.10;44.23;;;;;;;;;;5025848;28;20445;-72
2021/05/01 04:51:26;;;;;;;48.43;41.53;;;;;;;;;;5006083;28;20447;-72
2021/05/01 04:53:52;;;;;;;53.87;46.10;;;;;;;;;;5019736;28;20442;-72
2021/05/01 04:56:19;;;;;;;58.93;51.20;;;;;;;;;;5021901;28;20516;-74
2021/05/01 04:58:45;;;;;;;58.17;49.50;;;;;;;;;;5021806;28;20431;-72
2021/05/01 05:01:11;;;;;;;51.40;43.10;;;;;;;;;;5026352;28;20442;-73
2021/05/01 05:03:37;;;;;;;52.40;43.20;;;;;;;;;;5011444;28;21039;-72
2021/05/01 05:06:03;;;;;;;48.47;43.27;;;;;;;;;;5007499;28;20546;-73
2021/05/01 05:08:28;;;;;;;49.63;44.17;;;;;;;;;;5021022;28;20429;-72
2021/05/01 05:10:54;;;;;;;53.80;44.03;;;;;;;;;;5020726;28;20506;-73
2021/05/01 05:13:24;;;;;;;56.90;48.17;;;;;;;;;;5005110;28;20423;-73
2021/05/01 05:15:51;;;;;;;64.40;48.27;;;;;;;;;;5025000;28;20450;-74
2021/05/01 05:18:17;;;;;;;54.77;46.43;;;;;;;;;;5023366;28;20949;-74
2021/05/01 05:20:43;;;;;;;54.67;48.67;;;;;;;;;;5028378;28;20441;-73
2021/05/01 05:23:09;;;;;;;55.07;49.07;;;;;;;;;;5010881;28;21101;-74
2021/05/01 05:25:35;;;;;;;59.63;53.20;;;;;;;;;;5023013;28;20463;-73
2021/05/01 05:28:01;;;;;;;57.00;48.83;;;;;;;;;;5007213;28;20482;-72
2021/05/01 05:30:27;;;;;;;58.43;48.53;;;;;;;;;;5019134;28;21022;-74
2021/05/01 05:32:57;;;;;;;48.10;42.90;;;;;;;;;;5025751;28;20486;-74
2021/05/01 05:35:23;;;;;;;54.73;44.83;;;;;;;;;;5008923;28;20444;-72
2021/05/01 05:37:50;;;;;;;51.73;43.27;;;;;;;;;;5006261;28;20460;-72
2021/05/01 05:40:16;;;;;;;48.33;43.10;;;;;;;;;;5007320;28;20426;-74
2021/05/01 05:42:43;;;;;;;51.27;43.23;;;;;;;;;;5005293;28;20435;-73
2021/05/01 05:45:10;;;;;;;56.13;45.53;;;;;;;;;;5025029;28;20471;-73
2021/05/01 05:47:36;;;;;;;52.13;43.53;;;;;;;;;;5008890;28;20839;-73
2021/05/01 05:50:02;;;;;;;46.70;41.10;;;;;;;;;;5011633;28;20462;-74
2021/05/01 05:52:28;;;;;;;49.57;44.17;;;;;;;;;;5007472;28;20439;-73
2021/05/01 05:54:54;;;;;;;54.77;45.77;;;;;;;;;;5008228;28;20435;-72
2021/05/01 05:57:20;;;;;;;48.40;40.50;;;;;;;;;;5009049;28;21012;-74
2021/05/01 05:59:46;;;;;;;48.80;42.23;;;;;;;;;;5009881;28;21175;-73
2021/05/01 06:02:14;;;;;;;45.17;38.67;;;;;;;;;;5026130;28;20518;-73
2021/05/01 06:04:40;;;;;;;50.13;40.77;;;;;;;;;;5024343;28;20544;-73
2021/05/01 06:07:11;;;;;;;44.27;39.20;;;;;;;;;;5019768;28;20821;-72
2021/05/01 06:09:40;;;;;;;53.40;41.30;;;;;;;;;;5013268;28;20511;-74
2021/05/01 06:12:10;;;;;;;48.20;39.60;;;;;;;;;;5003552;28;20423;-73
2021/05/01 06:14:41;;;;;;;46.23;40.40;;;;;;;;;;5019275;28;20475;-73
2021/05/01 06:17:07;;;;;;;47.87;39.97;;;;;;;;;;5004835;28;20557;-73
2021/05/01 06:19:33;;;;;;;51.43;44.40;;;;;;;;;;4998851;28;20435;-73
2021/05/01 06:22:00;;;;;;;45.87;39.30;;;;;;;;;;5000832;28;20434;-76
2021/05/01 06:24:26;;;;;;;37.83;33.77;;;;;;;;;;5022142;28;20850;-73
2021/05/01 06:26:52;;;;;;;44.93;34.80;;;;;;;;;;5011255;28;20549;-73
2021/05/01 06:29:18;;;;;;;44.40;36.27;;;;;;;;;;5015195;28;20427;-73
2021/05/01 06:31:45;;;;;;;53.37;41.60;;;;;;;;;;5019878;28;21008;-73
2021/05/01 06:34:12;;;;;;;62.43;40.83;;;;;;;;;;5015483;28;20449;-72
2021/05/01 06:36:38;;;;;;;48.03;39.80;;;;;;;;;;5001300;28;20470;-74
2021/05/01 06:39:05;;;;;;;58.17;42.57;;;;;;;;;;5001356;28;20446;-73
2021/05/01 06:41:43;;;;;;;48.80;39.77;;;;;;;;;;5017601;28;20439;-77
2021/05/01 06:44:14;;;;;;;44.93;36.33;;;;;;;;;;5006697;28;20524;-74
2021/05/01 06:46:41;;;;;;;41.63;34.00;;;;;;;;;;5016082;28;20451;-76
2021/05/01 06:49:16;;;;;;;38.53;33.07;;;;;;;;;;5007984;28;20427;-75
2021/05/01 06:51:42;;;;;;;34.47;29.20;;;;;;;;;;5002283;28;21009;-74
2021/05/01 06:54:09;;;;;;;38.00;31.77;;;;;;;;;;5016749;28;20463;-74
2021/05/01 06:56:38;;;;;;;34.63;29.13;;;;;;;;;;5014545;28;20458;-74
2021/05/01 06:59:04;;;;;;;32.80;29.30;;;;;;;;;;5016083;28;20467;-72
2021/05/01 07:01:31;;;;;;;35.30;31.27;;;;;;;;;;5005582;28;20797;-72
2021/05/01 07:03:57;;;;;;;33.60;30.10;;;;;;;;;;5021129;28;20470;-71
2021/05/01 07:06:23;;;;;;;35.83;29.10;;;;;;;;;;5005255;28;20992;-72
2021/05/01 07:08:49;;;;;;;28.97;25.80;;;;;;;;;;5003306;28;20462;-72
2021/05/01 07:11:15;;;;;;;27.27;24.07;;;;;;;;;;5016964;28;20440;-72
2021/05/01 07:13:41;;;;;;;26.03;22.17;;;;;;;;;;5022933;28;20446;-73
2021/05/01 07:16:10;;;;;;;27.60;22.40;;;;;;;;;;5007250;28;20460;-72
2021/05/01 07:18:37;;;;;;;26.03;22.60;;;;;;;;;;5018007;28;21080;-72
2021/05/01 07:21:03;;;;;;;26.63;23.90;;;;;;;;;;5002589;28;20951;-72
2021/05/01 07:23:29;;;;;;;24.10;21.60;;;;;;;;;;5010432;28;20435;-73
2021/05/01 07:25:55;;;;;;;24.30;21.73;;;;;;;;;;5031332;28;20549;-72
2021/05/01 07:28:25;;;;;;;22.80;20.43;;;;;;;;;;5026399;28;20427;-72
2021/05/01 07:30:53;;;;;;;22.10;19.93;;;;;;;;;;5023961;28;20936;-74
2021/05/01 07:33:31;;;;;;;21.93;19.63;;;;;;;;;;5013234;28;20444;-72
2021/05/01 07:36:07;;;;;;;21.13;19.00;;;;;;;;;;5021939;28;21625;-74
2021/05/01 07:38:33;;;;;;;20.90;18.70;;;;;;;;;;5022036;28;20438;-79
2021/05/01 07:41:01;;;;;;;22.80;20.40;;;;;;;;;;5002762;28;20443;-74
2021/05/01 07:43:29;;;;;;;22.80;20.50;;;;;;;;;;5021567;28;20514;-75
2021/05/01 07:45:56;;;;;;;21.00;18.90;;;;;;;;;;5004977;28;20478;-73
2021/05/01 07:48:22;;;;;;;22.83;19.77;;;;;;;;;;5014581;28;20444;-75
2021/05/01 07:50:49;;;;;;;22.97;20.57;;;;;;;;;;5027103;28;20434;-75
2021/05/01 07:53:15;;;;;;;23.67;21.03;;;;;;;;;;5021327;28;20461;-73
2021/05/01 07:55:41;;;;;;;26.50;23.60;;;;;;;;;;5020197;28;20571;-73
2021/05/01 07:58:08;;;;;;;23.60;21.10;;;;;;;;;;5019636;28;20450;-73
2021/05/01 08:00:34;;;;;;;25.43;22.83;;;;;;;;;;5005949;28;20431;-74
2021/05/01 08:03:05;;;;;;;28.37;23.60;;;;;;;;;;5019044;28;20427;-73
2021/05/01 08:05:31;;;;;;;26.23;23.63;;;;;;;;;;5014844;28;20482;-76
2021/05/01 08:07:59;;;;;;;26.83;24.13;;;;;;;;;;5021051;28;20466;-73
2021/05/01 08:10:25;;;;;;;23.60;20.40;;;;;;;;;;5017990;28;20987;-73
2021/05/01 08:12:52;;;;;;;25.17;22.43;;;;;;;;;;5017683;28;20439;-74
2021/05/01 08:15:18;;;;;;;31.53;28.23;;;;;;;;;;5022178;28;20435;-74
2021/05/01 08:17:44;;;;;;;29.37;26.43;;;;;;;;;;5016490;28;20458;-82
2021/05/01 08:20:12;;;;;;;29.50;26.40;;;;;;;;;;5003038;28;20454;-71
2021/05/01 08:22:38;;;;;;;30.60;27.30;;;;;;;;;;5009169;28;20451;-72
2021/05/01 08:25:07;;;;;;;28.47;25.37;;;;;;;;;;5028774;28;20562;-72
2021/05/01 08:27:34;;;;;;;26.90;22.43;;;;;;;;;;5029218;28;26445;-74
2021/05/01 08:30:00;;;;;;;24.17;21.57;;;;;;;;;;5020119;28;20761;-72
2021/05/01 08:32:26;;;;;;;27.67;24.93;;;;;;;;;;5013716;28;20440;-74
2021/05/01 08:34:52;;;;;;;26.80;23.97;;;;;;;;;;5020357;28;20439;-73
2021/05/01 08:37:18;;;;;;;25.57;22.97;;;;;;;;;;5022023;28;20470;-73
2021/05/01 08:39:44;;;;;;;25.37;22.97;;;;;;;;;;5016831;28;20435;-74
2021/05/01 08:42:10;;;;;;;24.37;21.77;;;;;;;;;;5006077;28;20501;-73
2021/05/01 08:44:36;;;;;;;24.37;21.77;;;;;;;;;;5019094;28;20478;-73
2021/05/01 08:47:03;;;;;;;22.50;20.00;;;;;;;;;;5011808;28;20829;-73
2021/05/01 08:49:29;;;;;;;21.67;19.37;;;;;;;;;;5004191;28;20965;-74
2021/05/01 08:51:56;;;;;;;23.07;20.60;;;;;;;;;;5004612;28;20435;-73
2021/05/01 08:54:22;;;;;;;23.60;21.13;;;;;;;;;;5004241;28;20464;-75
2021/05/01 08:56:48;;;;;;;24.90;21.27;;;;;;;;;;5018281;28;20475;-75
2021/05/01 08:59:15;;;;;;;28.87;23.00;;;;;;;;;;5022734;28;21004;-76
2021/05/01 09:01:41;;;;;;;29.27;24.50;;;;;;;;;;5016930;28;21242;-76
2021/05/01 09:04:07;;;;;;;26.57;23.90;;;;;;;;;;5023591;28;20466;-78
2021/05/01 09:06:34;;;;;;;24.90;22.13;;;;;;;;;;5023552;28;20501;-74
2021/05/01 09:09:01;;;;;;;28.40;23.73;;;;;;;;;;5008309;28;21008;-74
2021/05/01 09:11:36;;;;;;;24.73;22.20;;;;;;;;;;5012241;28;21006;-79
2021/05/01 09:14:15;;;;;;;24.80;21.70;;;;;;;;;;5007470;28;20470;-74
2021/05/01 09:16:42;;;;;;;22.07;19.80;;;;;;;;;;5026555;28;21046;-73
2021/05/01 09:19:08;;;;;;;26.83;23.43;;;;;;;;;;5001547;28;20443;-74
2021/05/01 09:21:34;;;;;;;25.40;22.00;;;;;;;;;;5003986;28;20446;-74
2021/05/01 09:24:00;;;;;;;26.37;21.83;;;;;;;;;;5004024;28;20461;-74
2021/05/01 09:26:39;;;;;;;23.33;20.90;;;;;;;;;;5007248;28;20459;-74
2021/05/01 09:29:06;;;;;;;25.10;21.83;;;;;;;;;;5024311;28;20446;-76
2021/05/01 09:31:42;;;;;;;21.23;18.93;;;;;;;;;;5019437;28;20921;-72
2021/05/01 09:34:08;;;;;;;21.43;18.43;;;;;;;;;;5021526;28;20514;-76
2021/05/01 09:36:34;;;;;;;19.60;17.50;;;;;;;;;;5016745;28;20514;-74
2021/05/01 09:39:03;;;;;;;22.80;19.93;;;;;;;;;;5006099;28;20427;-75
2021/05/01 09:41:34;;;;;;;15.67;14.07;;;;;;;;;;5017900;28;20972;-74
2021/05/01 09:44:10;;;;;;;16.33;14.63;;;;;;;;;;5019014;28;20585;-72
2021/05/01 09:46:42;;;;;;;16.33;14.63;;;;;;;;;;5006361;28;20459;-74
2021/05/01 09:49:13;;;;;;;17.07;15.30;;;;;;;;;;5018299;28;20479;-74
2021/05/01 09:51:44;;;;;;;15.23;13.70;;;;;;;;;;5001894;28;20443;-72
2021/05/01 09:54:11;;;;;;;13.77;12.33;;;;;;;;;;5021363;28;20510;-73
2021/05/01 09:56:38;;;;;;;12.50;10.67;;;;;;;;;;5006296;28;20582;-75
2021/05/01 09:59:04;;;;;;;13.67;10.93;;;;;;;;;;5018825;28;21020;-73
2021/05/01 10:01:30;;;;;;;11.30;9.90;;;;;;;;;;5005303;28;20485;-75
2021/05/01 10:04:16;;;;;;;10.17;9.17;;;;;;;;;;5016258;28;20661;-76
2021/05/01 10:07:02;;;;;;;10.70;9.20;;;;;;;;;;5003946;28;20447;-76
2021/05/01 10:09:32;;;;;;;10.67;9.57;;;;;;;;;;5014976;28;20443;-73
2021/05/01 10:12:08;;;;;;;14.70;11.77;;;;;;;;;;5007148;28;20432;-76
2021/05/01 10:14:35;;;;;;;14.93;13.40;;;;;;;;;;5017841;28;20789;-78
2021/05/01 10:17:01;;;;;;;12.60;11.33;;;;;;;;;;5016843;28;20485;-73
2021/05/01 10:19:46;;;;;;;12.90;11.70;;;;;;;;;;5009803;28;21146;-75
2021/05/01 10:22:29;;;;;;;13.70;12.03;;;;;;;;;;5018323;28;20471;-77
2021/05/01 10:24:56;;;;;;;14.40;13.00;;;;;;;;;;5010335;28;20468;-78
2021/05/01 10:27:23;;;;;;;16.50;14.67;;;;;;;;;;5027105;28;20559;-83
2021/05/01 10:30:07;;;;;;;17.10;15.30;;;;;;;;;;5013378;28;20431;-79
2021/05/01 10:32:41;;;;;;;16.30;13.37;;;;;;;;;;5018571;28;20424;-73
2021/05/01 10:35:07;;;;;;;14.60;13.10;;;;;;;;;;5011080;28;20470;-73
2021/05/01 10:37:37;;;;;;;12.43;11.23;;;;;;;;;;5008841;28;20479;-74
2021/05/01 10:40:03;;;;;;;13.50;12.10;;;;;;;;;;5031779;28;20707;-74
2021/05/01 10:42:29;;;;;;;19.60;11.93;;;;;;;;;;5011111;28;20469;-78
2021/05/01 10:44:59;;;;;;;13.10;11.73;;;;;;;;;;5013089;28;20463;-84
2021/05/01 10:47:25;;;;;;;11.87;10.70;;;;;;;;;;5028456;28;20486;-78
2021/05/01 10:49:54;;;;;;;11.60;10.40;;;;;;;;;;5024729;28;20460;-81
2021/05/01 10:52:22;;;;;;;12.40;11.10;;;;;;;;;;5036572;28;20448;-77
2021/05/01 10:55:05;;;;;;;11.63;10.43;;;;;;;;;;5016624;28;20691;-78
2021/05/01 10:57:35;;;;;;;11.53;10.33;;;;;;;;;;5031641;28;20656;-75
2021/05/01 11:00:01;;;;;;;14.13;12.67;;;;;;;;;;5024720;28;20498;-74
2021/05/01 11:02:33;;;;;;;15.57;10.97;;;;;;;;;;5001854;28;20539;-73
2021/05/01 11:05:00;;;;;;;16.90;12.40;;;;;;;;;;5006065;28;20460;-73
2021/05/01 11:07:38;;;;;;;12.63;10.77;;;;;;;;;;5020628;28;20461;-73
2021/05/01 11:10:06;;;;;;;13.13;10.50;;;;;;;;;;5028102;28;20435;-72
2021/05/01 11:12:36;;;;;;;13.50;11.67;;;;;;;;;;5006711;28;20436;-73
2021/05/01 11:15:12;;;;;;;12.37;11.17;;;;;;;;;;5017675;28;20786;-73
2021/05/01 11:17:41;;;;;;;12.23;11.03;;;;;;;;;;5005642;28;20575;-73
2021/05/01 11:20:12;;;;;;;15.67;11.30;;;;;;;;;;5003138;28;20527;-74
2021/05/01 11:22:42;;;;;;;14.23;11.77;;;;;;;;;;5024264;28;20473;-75
2021/05/01 11:25:09;;;;;;;12.73;11.20;;;;;;;;;;5026700;28;20874;-78
2021/05/01 11:27:36;;;;;;;13.63;10.93;;;;;;;;;;5007177;28;20494;-80
2021/05/01 11:30:03;;;;;;;16.43;12.70;;;;;;;;;;5010705;28;20432;-73
2021/05/01 11:32:29;;;;;;;19.47;12.30;;;;;;;;;;5011120;28;20439;-76
2021/05/01 11:35:06;;;;;;;15.40;13.00;;;;;;;;;;5011567;28;20439;-80
2021/05/01 11:37:37;;;;;;;16.00;11.60;;;;;;;;;;5009387;28;20482;-75
2021/05/01 11:40:04;;;;;;;10.70;9.60;;;;;;;;;;5028760;28;20497;-77
2021/05/01 11:42:30;;;;;;;12.67;11.10;;;;;;;;;;5011819;28;20434;-80
2021/05/01 11:44:56;;;;;;;9.77;8.80;;;;;;;;;;5007565;28;20471;-79
2021/05/01 11:47:24;;;;;;;10.03;9.03;;;;;;;;;;5025099;28;20487;-79
2021/05/01 11:49:50;;;;;;;10.80;9.30;;;;;;;;;;5018713;28;20435;-81
2021/05/01 11:52:27;;;;;;;12.80;9.63;;;;;;;;;;5031978;28;20438;-79
2021/05/01 11:55:03;;;;;;;11.20;10.07;;;;;;;;;;4999396;28;20470;-74
2021/05/01 11:57:46;;;;;;;10.50;9.50;;;;;;;;;;5021675;28;20919;-76
2021/05/01 12:00:13;;;;;;;12.63;9.60;;;;;;;;;;5018048;28;20442;-77
2021/05/01 12:02:40;;;;;;;13.23;9.40;;;;;;;;;;4996731;28;20857;-76
2021/05/01 12:05:06;;;;;;;10.40;9.40;;;;;;;;;;5002617;28;20478;-76
2021/05/01 12:07:51;;;;;;;9.93;9.03;;;;;;;;;;5001054;28;20470;-75
2021/05/01 12:10:19;;;;;;;12.00;9.87;;;;;;;;;;5018258;28;20948;-83
2021/05/01 12:12:55;;;;;;;15.67;9.10;;;;;;;;;;5023438;28;20497;-75
2021/05/01 12:15:21;;;;;;;9.00;8.10;;;;;;;;;;5019332;28;20518;-74
2021/05/01 12:17:54;;;;;;;11.20;9.50;;;;;;;;;;5023410;28;20549;-73
2021/05/01 12:20:22;;;;;;;9.77;8.80;;;;;;;;;;5019295;28;20443;-78
2021/05/01 12:22:48;;;;;;;8.73;7.87;;;;;;;;;;5025275;28;20929;-77
2021/05/01 12:25:33;;;;;;;11.03;8.67;;;;;;;;;;5008589;28;20462;-77
2021/05/01 12:27:59;;;;;;;10.73;8.63;;;;;;;;;;5014680;28;20489;-76
2021/05/01 12:30:40;;;;;;;12.10;9.00;;;;;;;;;;4999253;28;20485;-77
2021/05/01 12:33:25;;;;;;;11.87;10.00;;;;;;;;;;5006111;28;20480;-79
2021/05/01 12:35:52;;;;;;;9.60;8.30;;;;;;;;;;5022186;28;20446;-77
2021/05/01 12:38:19;;;;;;;9.53;8.53;;;;;;;;;;5007617;28;20454;-76
2021/05/01 12:40:45;;;;;;;10.37;9.17;;;;;;;;;;5014287;28;20428;-80
2021/05/01 12:43:36;;;;;;;10.43;9.33;;;;;;;;;;5018478;28;20848;-78
2021/05/01 12:46:12;;;;;;;11.37;9.50;;;;;;;;;;5006357;28;20475;-77
2021/05/01 12:48:44;;;;;;;10.40;9.40;;;;;;;;;;5022428;28;20439;-77
2021/05/01 12:51:31;;;;;;;9.37;7.70;;;;;;;;;;5038447;28;20435;-76
2021/05/01 12:53:58;;;;;;;7.13;6.30;;;;;;;;;;5016731;28;20445;-76
2021/05/01 12:56:33;;;;;;;7.40;5.73;;;;;;;;;;5029154;28;20448;-77
2021/05/01 12:59:21;;;;;;;5.77;5.23;;;;;;;;;;5019134;28;20426;-78
2021/05/01 13:01:48;;;;;;;7.20;6.03;;;;;;;;;;5022533;28;20425;-76
2021/05/01 13:04:16;;;;;;;7.10;6.27;;;;;;;;;;5001462;28;20456;-76
2021/05/01 13:06:44;;;;;;;10.20;5.40;;;;;;;;;;5000054;28;20490;-76
2021/05/01 13:09:10;;;;;;;7.67;6.23;;;;;;;;;;5000738;28;20468;-78
2021/05/01 13:11:36;;;;;;;6.53;5.90;;;;;;;;;;5045627;28;20424;-77
2021/05/01 13:14:18;;;;;;;7.80;5.63;;;;;;;;;;5003896;28;20434;-77
2021/05/01 13:17:16;;;;;;;4.90;4.30;;;;;;;;;;5009973;28;20446;-77
2021/05/01 13:19:45;;;;;;;5.60;5.00;;;;;;;;;;4985743;28;20446;-78
2021/05/01 13:22:15;;;;;;;4.90;4.43;;;;;;;;;;5032002;28;20502;-77
2021/05/01 13:24:41;;;;;;;6.93;5.20;;;;;;;;;;5035591;28;20463;-75
2021/05/01 13:27:09;;;;;;;6.80;6.07;;;;;;;;;;5042730;28;20451;-76
2021/05/01 13:29:37;;;;;;;7.80;6.60;;;;;;;;;;5014124;28;20563;-77
2021/05/01 13:32:03;;;;;;;9.97;7.90;;;;;;;;;;5000543;28;20416;-80
2021/05/01 13:34:29;;;;;;;12.10;7.27;;;;;;;;;;5020404;28;20423;-78
2021/05/01 13:36:56;;;;;;;9.93;7.73;;;;;;;;;;5017694;28;20463;-78
2021/05/01 13:39:25;;;;;;;10.87;7.70;;;;;;;;;;5027018;28;20460;-76
2021/05/01 13:42:08;;;;;;;16.00;10.40;;;;;;;;;;5000581;28;20499;-78
2021/05/01 13:44:38;;;;;;;15.97;9.30;;;;;;;;;;5018725;28;20467;-76
2021/05/01 13:47:05;;;;;;;13.30;10.57;;;;;;;;;;5020233;28;20451;-76
2021/05/01 13:49:31;;;;;;;11.17;7.33;;;;;;;;;;5017339;28;21012;-76
2021/05/01 13:51:57;;;;;;;9.50;7.50;;;;;;;;;;5026034;28;20963;-76
2021/05/01 13:54:26;;;;;;;7.20;6.50;;;;;;;;;;5027503;28;20447;-77
2021/05/01 13:56:52;;;;;;;8.90;8.10;;;;;;;;;;5016361;28;20475;-77
2021/05/01 13:59:26;;;;;;;9.07;7.23;;;;;;;;;;5040896;28;20464;-80
2021/05/01 14:01:52;;;;;;;8.13;6.63;;;;;;;;;;5026895;28;20947;-82
2021/05/01 14:04:29;;;;;;;7.57;6.83;;;;;;;;;;5017050;28;20954;-77
2021/05/01 14:06:58;;;;;;;10.83;8.10;;;;;;;;;;5029973;28;20547;-77
2021/05/01 14:09:25;;;;;;;8.93;8.00;;;;;;;;;;5022084;28;20498;-82
2021/05/01 14:11:51;;;;;;;12.37;8.17;;;;;;;;;;5020585;28;20411;-81
2021/05/01 14:14:20;;;;;;;9.23;7.30;;;;;;;;;;5013781;28;20431;-76
2021/05/01 14:16:57;;;;;;;8.80;5.97;;;;;;;;;;5032345;28;20509;-76
2021/05/01 14:19:23;;;;;;;8.40;6.90;;;;;;;;;;5012301;28;20456;-78
2021/05/01 14:21:55;;;;;;;6.23;5.63;;;;;;;;;;5019400;28;20854;-80
2021/05/01 14:24:22;;;;;;;8.20;6.50;;;;;;;;;;5002682;28;20837;-80
2021/05/01 14:26:52;;;;;;;7.53;6.80;;;;;;;;;;5020733;28;20455;-77